TimeHST,TemperatureF,Dew PointF,Humidity,Sea Level PressureIn,VisibilityMPH,Wind Direction,Wind SpeedMPH,Gust SpeedMPH,PrecipitationIn,Events,Conditions,WindDirDegrees,DateUTC
12:55 AM,69.8,64.0,82,29.93,10.0,WNW,3.5,-,N/A,,Mostly Cloudy,300,2013-07-25 10:55:00
1:55 AM,71.1,64.4,79,29.92,10.0,NW,4.6,-,N/A,,Scattered Clouds,310,2013-07-25 11:55:00
2:55 AM,70.5,64.4,81,29.92,10.0,Calm,Calm,-,N/A,,Scattered Clouds,0,2013-07-25 12:55:00
3:55 AM,68.4,63.5,84,29.92,10.0,WNW,3.5,-,N/A,,Partly Cloudy,290,2013-07-25 13:55:00
5:55 AM,67.5,63.5,87,29.94,10.0,WNW,5.8,-,N/A,,Mostly Cloudy,290,2013-07-25 15:55:00
6:55 AM,70.0,64.8,83,29.95,10.0,Calm,Calm,-,N/A,,Overcast,0,2013-07-25 16:55:00
7:16 AM,71.6,66.2,83,29.95,10.0,Calm,Calm,-,N/A,,Overcast,0,2013-07-25 17:16:00
7:33 AM,73.4,66.2,78,29.96,10.0,Calm,Calm,-,N/A,,Mostly Cloudy,0,2013-07-25 17:33:00
7:55 AM,74.3,66.0,75,29.96,10.0,North,3.5,-,N/A,,Mostly Cloudy,10,2013-07-25 17:55:00
8:55 AM,76.1,65.8,70,29.96,10.0,NE,8.1,-,N/A,,Overcast,50,2013-07-25 18:55:00
9:55 AM,77.9,65.1,65,29.96,10.0,NE,8.1,-,N/A,,Mostly Cloudy,50,2013-07-25 19:55:00
10:55 AM,80.6,63.3,55,29.95,10.0,East,13.8,18.4,N/A,,Clear,80,2013-07-25 20:55:00
11:55 AM,81.7,64.0,55,29.95,10.0,ENE,12.7,-,N/A,,Partly Cloudy,70,2013-07-25 21:55:00
12:55 PM,82.2,62.8,52,29.94,10.0,East,11.5,17.3,N/A,,Scattered Clouds,80,2013-07-25 22:55:00
1:55 PM,82.8,63.3,52,29.93,10.0,East,11.5,-,N/A,,Clear,90,2013-07-25 23:55:00
2:55 PM,83.3,63.7,51,29.91,10.0,ENE,15.0,-,N/A,,Clear,70,2013-07-26 00:55:00
3:55 PM,82.4,64.2,54,29.91,10.0,ENE,15.0,-,N/A,,Clear,70,2013-07-26 01:55:00
4:55 PM,79.9,65.5,61,29.91,10.0,NE,9.2,-,N/A,,Clear,50,2013-07-26 02:55:00
5:55 PM,79.0,63.7,59,29.93,10.0,ENE,12.7,-,N/A,,Clear,70,2013-07-26 03:55:00
6:55 PM,76.1,63.3,64,29.94,10.0,East,5.8,-,N/A,,Clear,80,2013-07-26 04:55:00
7:55 PM,74.7,63.9,69,29.96,10.0,Calm,Calm,-,N/A,,Scattered Clouds,0,2013-07-26 05:55:00
8:55 PM,73.9,63.7,70,29.96,10.0,WNW,4.6,-,N/A,,Mostly Cloudy,300,2013-07-26 06:55:00
9:55 PM,73.4,64.4,73,29.97,10.0,NNW,4.6,-,N/A,,Scattered Clouds,330,2013-07-26 07:55:00
10:55 PM,73.8,64.4,72,29.96,10.0,ENE,3.5,-,N/A,,Scattered Clouds,70,2013-07-26 08:55:00
11:55 PM,73.4,64.0,72,29.96,10.0,Variable,4.6,-,N/A,,Partly Cloudy,0,2013-07-26 09:55:00